createdAt,value
2023-01-29T00:02:11.969Z,17.98
2023-01-29T00:04:39.184Z,19.05
2023-01-29T00:07:06.165Z,18.65
2023-01-29T00:09:33.226Z,16.30
2023-01-29T00:12:00.190Z,17.42
2023-01-29T00:14:27.638Z,16.05
2023-01-29T00:16:54.822Z,17.27
2023-01-29T00:19:22.168Z,19.52
2023-01-29T00:21:49.175Z,17.90
2023-01-29T00:24:16.367Z,19.05
2023-01-29T00:26:43.459Z,16.75
2023-01-29T00:29:10.831Z,17.02
2023-01-29T00:31:38.227Z,16.33
2023-01-29T00:34:07.373Z,15.93
2023-01-29T00:36:34.338Z,15.93
2023-01-29T00:39:10.513Z,15.80
2023-01-29T00:41:56.776Z,16.17
2023-01-29T00:44:42.195Z,15.95
2023-01-29T00:47:29.189Z,17.00
2023-01-29T00:49:56.969Z,17.17
2023-01-29T00:52:24.155Z,16.52
2023-01-29T00:54:55.767Z,16.02
2023-01-29T00:57:24.568Z,15.95
2023-01-29T00:59:51.665Z,15.95
2023-01-29T01:02:37.750Z,15.98
2023-01-29T01:05:07.730Z,15.65
2023-01-29T01:07:34.721Z,16.17
2023-01-29T01:10:20.231Z,16.25
2023-01-29T01:12:53.804Z,15.27
2023-01-29T01:15:21.835Z,16.77
2023-01-29T01:17:51.691Z,15.88
2023-01-29T01:20:19.427Z,15.57
2023-01-29T01:22:46.556Z,16.80
2023-01-29T01:25:13.615Z,16.75
2023-01-29T01:27:41.120Z,17.38
2023-01-29T01:30:17.659Z,17.08
2023-01-29T01:32:45.299Z,16.77
2023-01-29T01:35:14.808Z,16.52
2023-01-29T01:37:42.283Z,16.73
2023-01-29T01:40:18.390Z,16.92
2023-01-29T01:42:49.285Z,16.80
2023-01-29T01:45:29.709Z,18.35
2023-01-29T01:48:00.255Z,17.55
2023-01-29T01:50:32.863Z,17.00
2023-01-29T01:53:14.467Z,17.00
2023-01-29T01:55:47.059Z,17.00
2023-01-29T01:58:20.140Z,17.65
2023-01-29T02:00:48.107Z,16.92
2023-01-29T02:03:34.263Z,16.92
2023-01-29T02:06:19.943Z,18.67
2023-01-29T02:09:17.238Z,16.88
2023-01-29T02:11:44.235Z,17.65
2023-01-29T02:14:12.199Z,17.83
2023-01-29T02:16:39.176Z,17.05
2023-01-29T02:19:17.298Z,16.45
2023-01-29T02:22:07.135Z,17.45
2023-01-29T02:24:58.529Z,17.60
2023-01-29T02:27:43.100Z,18.58
2023-01-29T02:30:23.921Z,17.17
2023-01-29T02:32:59.419Z,17.80
2023-01-29T02:35:45.099Z,17.42
2023-01-29T02:38:28.738Z,18.33
2023-01-29T02:41:02.056Z,17.05
2023-01-29T02:43:50.964Z,17.75
2023-01-29T02:46:23.157Z,17.35
2023-01-29T02:48:55.900Z,16.90
2023-01-29T02:51:36.454Z,18.00
2023-01-29T02:54:27.521Z,18.58
2023-01-29T02:57:04.632Z,16.88
2023-01-29T02:59:54.116Z,18.20
2023-01-29T03:02:31.134Z,18.88
2023-01-29T03:05:07.690Z,18.63
2023-01-29T03:07:46.315Z,18.10
2023-01-29T03:11:05.369Z,18.25
2023-01-29T03:13:55.623Z,17.63
2023-01-29T03:16:47.884Z,16.73
2023-01-29T03:19:24.109Z,16.67
2023-01-29T03:22:04.606Z,17.75
2023-01-29T03:25:16.407Z,16.85
2023-01-29T03:28:18.438Z,16.77
2023-01-29T03:31:14.017Z,17.23
2023-01-29T03:34:01.960Z,17.15
2023-01-29T03:36:45.583Z,16.80
2023-01-29T03:39:15.441Z,16.33
2023-01-29T03:41:54.950Z,15.68
2023-01-29T03:44:30.545Z,16.77
2023-01-29T03:46:57.613Z,16.75
2023-01-29T03:50:03.147Z,17.15
2023-01-29T03:52:49.383Z,18.48
2023-01-29T03:55:25.197Z,16.10
2023-01-29T03:57:54.911Z,16.88
2023-01-29T04:00:56.460Z,17.48
2023-01-29T04:03:35.469Z,16.55
2023-01-29T04:06:16.696Z,16.92
2023-01-29T04:09:00.047Z,16.48
2023-01-29T04:11:28.845Z,15.50
2023-01-29T04:13:57.531Z,17.00
2023-01-29T04:16:29.472Z,16.67
2023-01-29T04:19:13.356Z,16.58
2023-01-29T04:21:42.911Z,17.13
2023-01-29T04:24:12.612Z,16.73
2023-01-29T04:26:54.068Z,15.52
2023-01-29T04:29:30.323Z,15.80
2023-01-29T04:32:13.734Z,15.85
2023-01-29T04:35:08.947Z,14.98
2023-01-29T04:37:56.257Z,16.17
2023-01-29T04:40:39.339Z,16.08
2023-01-29T04:43:34.775Z,15.70
2023-01-29T04:46:19.653Z,16.67
2023-01-29T04:48:49.437Z,14.90
2023-01-29T04:51:22.304Z,15.32
2023-01-29T04:53:58.509Z,15.18
2023-01-29T04:56:43.773Z,15.63
2023-01-29T04:59:17.749Z,16.30
2023-01-29T05:01:45.502Z,15.57
2023-01-29T05:04:16.147Z,15.63
2023-01-29T05:06:46.776Z,16.85
2023-01-29T05:09:16.214Z,18.00
2023-01-29T05:11:45.231Z,16.10
2023-01-29T05:14:16.475Z,15.82
2023-01-29T05:16:51.586Z,15.85
2023-01-29T05:19:18.619Z,15.85
2023-01-29T05:21:48.513Z,15.30
2023-01-29T05:24:18.386Z,15.88
2023-01-29T05:27:07.107Z,16.08
2023-01-29T05:29:34.319Z,16.27
2023-01-29T05:32:01.424Z,16.65
2023-01-29T05:34:28.340Z,17.08
2023-01-29T05:36:55.341Z,16.13
2023-01-29T05:39:22.410Z,16.30
2023-01-29T05:41:49.356Z,16.58
2023-01-29T05:44:16.273Z,16.38
2023-01-29T05:46:44.102Z,17.40
2023-01-29T05:49:11.126Z,16.23
2023-01-29T05:51:38.212Z,16.83
2023-01-29T05:54:05.511Z,15.88
2023-01-29T05:56:32.433Z,17.48
2023-01-29T05:58:59.433Z,16.48
2023-01-29T06:01:26.735Z,17.38
2023-01-29T06:03:53.698Z,17.70
2023-01-29T06:06:20.749Z,17.63
2023-01-29T06:08:48.001Z,16.77
2023-01-29T06:11:18.297Z,16.83
2023-01-29T06:13:46.284Z,16.90
2023-01-29T06:16:14.083Z,17.02
2023-01-29T06:18:41.649Z,17.67
2023-01-29T06:21:11.461Z,19.27
2023-01-29T06:23:38.632Z,17.55
2023-01-29T06:26:08.445Z,18.02
2023-01-29T06:28:35.921Z,18.27
2023-01-29T06:31:22.133Z,17.08
2023-01-29T06:33:51.390Z,17.33
2023-01-29T06:36:18.474Z,17.77
2023-01-29T06:38:45.405Z,18.90
2023-01-29T06:41:16.084Z,16.10
2023-01-29T06:43:45.997Z,17.65
2023-01-29T06:46:13.033Z,18.33
2023-01-29T06:48:40.055Z,17.35
2023-01-29T06:51:08.884Z,18.85
2023-01-29T06:53:37.638Z,19.00
2023-01-29T06:56:05.468Z,17.65
2023-01-29T06:58:32.576Z,18.90
2023-01-29T07:01:10.916Z,19.33
2023-01-29T07:03:38.904Z,19.23
2023-01-29T07:06:06.991Z,18.15
2023-01-29T07:08:38.239Z,17.45
2023-01-29T07:11:06.348Z,18.13
2023-01-29T07:13:33.656Z,17.98
2023-01-29T07:16:05.235Z,18.42
2023-01-29T07:18:32.411Z,17.70
2023-01-29T07:20:59.525Z,19.95
2023-01-29T07:23:26.541Z,17.92
2023-01-29T07:25:53.479Z,19.63
2023-01-29T07:28:23.407Z,18.30
2023-01-29T07:30:50.571Z,18.20
2023-01-29T07:33:17.571Z,19.20
2023-01-29T07:35:44.799Z,18.55
2023-01-29T07:38:12.220Z,18.45
2023-01-29T07:40:39.290Z,19.40
2023-01-29T07:43:08.028Z,18.60
2023-01-29T07:45:36.882Z,19.55
2023-01-29T07:48:07.880Z,18.55
2023-01-29T07:50:35.629Z,20.08
2023-01-29T07:53:03.028Z,19.30
2023-01-29T07:55:30.257Z,18.98
2023-01-29T07:58:03.151Z,19.02
2023-01-29T08:00:31.633Z,18.70
2023-01-29T08:03:10.892Z,18.85
2023-01-29T08:05:37.908Z,18.33
2023-01-29T08:08:07.297Z,18.98
2023-01-29T08:10:36.234Z,19.98
2023-01-29T08:13:04.266Z,19.85
2023-01-29T08:15:32.689Z,19.60
2023-01-29T08:18:02.355Z,18.50
2023-01-29T08:20:29.593Z,19.67
2023-01-29T08:23:04.616Z,19.45
2023-01-29T08:25:32.507Z,19.70
2023-01-29T08:28:00.684Z,21.75
2023-01-29T08:30:32.837Z,20.73
2023-01-29T08:33:00.260Z,19.48
2023-01-29T08:35:27.668Z,19.65
2023-01-29T08:38:03.475Z,20.08
2023-01-29T08:40:32.832Z,21.15
2023-01-29T08:43:09.069Z,19.90
2023-01-29T08:45:42.154Z,20.73
2023-01-29T08:48:10.017Z,20.55
2023-01-29T08:50:37.318Z,20.42
2023-01-29T08:53:08.004Z,21.00
2023-01-29T08:55:39.534Z,19.67
2023-01-29T08:58:08.064Z,19.75
2023-01-29T09:00:35.427Z,20.73
2023-01-29T09:03:03.271Z,19.05
2023-01-29T09:05:30.363Z,20.13
2023-01-29T09:07:58.078Z,19.33
2023-01-29T09:10:26.219Z,20.02
2023-01-29T09:12:53.130Z,20.00
2023-01-29T09:15:20.376Z,20.27
2023-01-29T09:17:49.433Z,19.88
2023-01-29T09:20:16.974Z,20.75
2023-01-29T09:22:44.276Z,21.02
2023-01-29T09:25:11.350Z,19.42
2023-01-29T09:27:38.319Z,18.52
2023-01-29T09:30:07.239Z,19.85
2023-01-29T09:32:52.721Z,18.70
2023-01-29T09:35:20.069Z,19.52
2023-01-29T09:37:51.167Z,18.08
2023-01-29T09:40:56.834Z,18.20
2023-01-29T09:43:34.910Z,17.42
2023-01-29T09:46:15.207Z,18.75
2023-01-29T09:48:43.055Z,18.40
2023-01-29T09:51:28.663Z,18.13
2023-01-29T09:54:08.796Z,18.77
2023-01-29T09:56:35.872Z,18.52
2023-01-29T09:59:02.844Z,19.48
2023-01-29T10:01:46.120Z,17.83
2023-01-29T10:04:50.615Z,18.73
2023-01-29T10:07:30.744Z,19.08
2023-01-29T10:10:34.768Z,17.02
2023-01-29T10:13:20.157Z,18.17
2023-01-29T10:15:52.690Z,18.00
2023-01-29T10:18:37.468Z,18.15
2023-01-29T10:21:41.437Z,15.88
2023-01-29T10:24:11.307Z,17.08
2023-01-29T10:26:40.742Z,18.27
2023-01-29T10:29:08.625Z,17.70
2023-01-29T10:31:40.470Z,17.23
2023-01-29T10:34:25.172Z,16.92
2023-01-29T10:36:55.072Z,16.65
2023-01-29T10:39:24.418Z,15.80
2023-01-29T10:42:12.886Z,16.05
2023-01-29T10:44:57.916Z,16.77
2023-01-29T10:47:33.800Z,15.63
2023-01-29T10:50:17.264Z,16.80
2023-01-29T10:53:01.391Z,16.75
2023-01-29T10:55:34.411Z,15.80
2023-01-29T10:58:15.327Z,13.65
2023-01-29T11:00:42.767Z,15.23
2023-01-29T11:03:28.064Z,13.98
2023-01-29T11:06:23.752Z,13.55
2023-01-29T11:09:24.079Z,13.43
2023-01-29T11:11:58.643Z,11.80
2023-01-29T11:14:42.518Z,13.48
2023-01-29T11:17:17.865Z,14.30
2023-01-29T11:19:48.447Z,13.93
2023-01-29T11:22:21.194Z,13.50
2023-01-29T11:25:11.149Z,13.77
2023-01-29T11:28:00.931Z,13.57
2023-01-29T11:30:32.288Z,13.25
2023-01-29T11:33:12.165Z,10.82
2023-01-29T11:35:39.284Z,12.13
2023-01-29T11:38:24.795Z,12.05
2023-01-29T11:40:52.778Z,11.32
2023-01-29T11:43:27.807Z,11.52
2023-01-29T11:45:58.553Z,10.38
2023-01-29T11:48:40.481Z,9.65
2023-01-29T11:51:08.818Z,10.57
2023-01-29T11:53:37.582Z,9.88
2023-01-29T11:56:26.528Z,10.13
2023-01-29T11:58:56.121Z,10.45
2023-01-29T12:01:38.702Z,10.10
2023-01-29T12:04:25.624Z,10.20
2023-01-29T12:06:54.746Z,9.70
2023-01-29T12:09:27.275Z,10.52
2023-01-29T12:11:54.920Z,10.82
2023-01-29T12:14:39.911Z,10.05
2023-01-29T12:17:19.539Z,9.50
2023-01-29T12:19:55.268Z,10.35
2023-01-29T12:22:42.020Z,11.02
2023-01-29T12:25:40.574Z,10.48
2023-01-29T12:28:22.601Z,10.35
2023-01-29T12:31:08.042Z,10.88
2023-01-29T12:34:05.611Z,9.85
2023-01-29T12:36:38.951Z,10.35
2023-01-29T12:39:06.055Z,11.10
2023-01-29T12:41:46.172Z,10.32
2023-01-29T12:44:35.488Z,10.48
2023-01-29T12:47:06.989Z,9.63
2023-01-29T12:49:37.067Z,9.68
2023-01-29T12:52:16.174Z,9.85
2023-01-29T12:55:03.395Z,9.98
2023-01-29T12:57:46.722Z,9.80
2023-01-29T13:00:19.064Z,9.40
2023-01-29T13:03:08.191Z,9.98
2023-01-29T13:06:08.653Z,9.20
2023-01-29T13:08:54.860Z,7.78
2023-01-29T13:11:37.047Z,8.40
2023-01-29T13:14:26.568Z,8.68
2023-01-29T13:17:02.656Z,8.07
2023-01-29T13:19:37.008Z,8.30
2023-01-29T13:22:10.895Z,8.93
2023-01-29T13:24:41.173Z,8.60
2023-01-29T13:27:34.818Z,8.50
2023-01-29T13:30:04.512Z,8.65
2023-01-29T13:32:34.319Z,8.43
2023-01-29T13:35:13.089Z,8.55
2023-01-29T13:37:54.863Z,8.52
2023-01-29T13:40:27.654Z,8.82
2023-01-29T13:42:58.400Z,9.00
2023-01-29T13:45:36.260Z,8.32
2023-01-29T13:48:28.971Z,8.93
2023-01-29T13:50:59.839Z,8.95
2023-01-29T13:53:36.587Z,8.38
2023-01-29T13:56:32.892Z,7.85
2023-01-29T13:59:02.484Z,7.78
2023-01-29T14:01:47.685Z,9.27
2023-01-29T14:04:26.800Z,9.63
2023-01-29T14:06:58.692Z,8.65
2023-01-29T14:09:45.548Z,9.45
2023-01-29T14:12:21.626Z,10.38
2023-01-29T14:14:48.658Z,10.05
2023-01-29T14:17:17.369Z,8.40
2023-01-29T14:19:52.926Z,8.65
2023-01-29T14:22:26.669Z,9.23
2023-01-29T14:24:57.050Z,8.15
2023-01-29T14:27:25.836Z,9.20
2023-01-29T14:30:06.368Z,9.27
2023-01-29T14:32:34.030Z,9.02
2023-01-29T14:35:06.997Z,10.25
2023-01-29T14:37:39.232Z,9.82
2023-01-29T14:40:27.157Z,7.85
2023-01-29T14:43:04.103Z,8.48
2023-01-29T14:45:36.518Z,6.70
2023-01-29T14:48:09.229Z,9.32
2023-01-29T14:50:36.162Z,10.93
2023-01-29T14:53:37.502Z,9.60
2023-01-29T14:56:14.463Z,8.43
2023-01-29T14:58:56.251Z,10.23
2023-01-29T15:01:30.873Z,9.57
2023-01-29T15:04:06.773Z,10.63
2023-01-29T15:06:46.054Z,10.35
2023-01-29T15:09:40.969Z,7.63
2023-01-29T15:12:15.591Z,9.40
2023-01-29T15:14:59.566Z,10.60
2023-01-29T15:17:33.056Z,10.30
2023-01-29T15:20:00.208Z,11.20
2023-01-29T15:22:29.105Z,9.95
2023-01-29T15:25:07.365Z,11.13
2023-01-29T15:27:34.949Z,9.80
2023-01-29T15:30:04.824Z,12.52
2023-01-29T15:32:40.011Z,13.38
2023-01-29T15:35:19.372Z,12.07
2023-01-29T15:37:59.374Z,11.82
2023-01-29T15:40:26.916Z,12.75
2023-01-29T15:42:54.006Z,14.15
2023-01-29T15:45:32.857Z,12.30
2023-01-29T15:48:15.099Z,13.18
2023-01-29T15:50:42.932Z,12.77
2023-01-29T15:53:17.829Z,14.73
2023-01-29T15:55:45.647Z,13.38
2023-01-29T15:58:18.296Z,14.07
2023-01-29T16:00:53.678Z,15.00
2023-01-29T16:03:23.915Z,15.18
2023-01-29T16:05:52.732Z,14.15
2023-01-29T16:08:23.684Z,14.40
2023-01-29T16:10:55.783Z,14.50
2023-01-29T16:13:25.592Z,14.80
2023-01-29T16:16:16.127Z,17.52
2023-01-29T16:18:58.802Z,14.15
2023-01-29T16:21:37.384Z,15.15
2023-01-29T16:24:14.193Z,15.90
2023-01-29T16:26:46.492Z,15.73
2023-01-29T16:29:28.910Z,14.95
2023-01-29T16:32:01.722Z,14.15
2023-01-29T16:34:34.781Z,14.00
2023-01-29T16:37:05.458Z,15.95
2023-01-29T16:39:39.310Z,16.17
2023-01-29T16:42:19.871Z,15.25
2023-01-29T16:45:03.263Z,15.30
2023-01-29T16:47:39.347Z,15.02
2023-01-29T16:50:46.440Z,14.95
2023-01-29T16:53:24.650Z,14.35
2023-01-29T16:55:52.906Z,15.07
2023-01-29T16:58:22.800Z,15.57
2023-01-29T17:01:11.742Z,15.60
2023-01-29T17:03:40.278Z,14.32
2023-01-29T17:06:21.157Z,14.95
2023-01-29T17:08:48.416Z,14.48
2023-01-29T17:11:31.777Z,15.80
2023-01-29T17:13:59.362Z,15.52
2023-01-29T17:16:29.782Z,14.63
2023-01-29T17:18:57.850Z,15.05
2023-01-29T17:21:25.389Z,15.00
2023-01-29T17:23:52.866Z,13.10
2023-01-29T17:26:21.211Z,13.85
2023-01-29T17:28:52.535Z,14.68
2023-01-29T17:31:19.500Z,13.45
2023-01-29T17:33:47.365Z,13.05
2023-01-29T17:36:17.202Z,13.25
2023-01-29T17:38:44.901Z,14.85
2023-01-29T17:41:28.608Z,13.18
2023-01-29T17:43:55.857Z,14.02
2023-01-29T17:46:22.903Z,14.68
2023-01-29T17:48:50.155Z,15.35
2023-01-29T17:51:18.371Z,15.63
2023-01-29T17:53:46.801Z,14.48
2023-01-29T17:56:17.289Z,13.95
2023-01-29T17:58:44.329Z,13.90
2023-01-29T18:01:11.321Z,14.80
2023-01-29T18:03:38.674Z,14.98
2023-01-29T18:06:08.725Z,15.05
2023-01-29T18:08:38.077Z,15.13
2023-01-29T18:11:05.302Z,15.25
2023-01-29T18:13:32.289Z,15.70
2023-01-29T18:15:59.305Z,14.77
2023-01-29T18:18:26.328Z,15.80
2023-01-29T18:20:53.365Z,14.18
2023-01-29T18:23:20.509Z,14.57
2023-01-29T18:25:47.534Z,17.42
2023-01-29T18:28:17.144Z,15.93
2023-01-29T18:30:47.228Z,18.50
2023-01-29T18:33:15.192Z,14.95
2023-01-29T18:35:44.514Z,16.17
2023-01-29T18:38:11.820Z,16.00
2023-01-29T18:40:38.791Z,16.83
2023-01-29T18:43:05.758Z,16.23
2023-01-29T18:45:32.941Z,16.08
2023-01-29T18:48:00.164Z,16.25
2023-01-29T18:50:27.436Z,14.52
2023-01-29T18:52:55.007Z,14.98
2023-01-29T18:55:22.759Z,14.27
2023-01-29T18:58:26.869Z,15.57
2023-01-29T19:00:43.787Z,15.32
2023-01-29T19:03:11.052Z,15.23
2023-01-29T19:05:38.352Z,13.48
2023-01-29T19:08:05.860Z,14.10
2023-01-29T19:10:33.247Z,13.73
2023-01-29T19:13:00.277Z,14.68
2023-01-29T19:15:27.278Z,15.38
2023-01-29T19:17:54.481Z,14.07
2023-01-29T19:20:21.592Z,15.93
2023-01-29T19:22:48.641Z,16.30
2023-01-29T19:25:16.587Z,13.20
2023-01-29T19:27:43.973Z,13.77
2023-01-29T19:30:12.964Z,13.88
2023-01-29T19:32:41.059Z,12.32
2023-01-29T19:35:08.281Z,16.00
2023-01-29T19:37:35.283Z,13.90
2023-01-29T19:40:02.348Z,14.73
2023-01-29T19:42:29.377Z,14.88
2023-01-29T19:44:56.325Z,12.35
2023-01-29T19:47:23.347Z,13.18
2023-01-29T19:49:50.405Z,15.60
2023-01-29T19:52:51.177Z,14.13
2023-01-29T19:55:20.994Z,15.00
2023-01-29T19:57:48.261Z,14.57
2023-01-29T20:00:17.535Z,14.20
2023-01-29T20:02:44.637Z,14.32
2023-01-29T20:05:13.091Z,13.45
2023-01-29T20:07:41.188Z,15.10
2023-01-29T20:10:11.402Z,15.50
2023-01-29T20:12:38.719Z,16.33
2023-01-29T20:15:07.392Z,14.55
2023-01-29T20:17:34.517Z,13.68
2023-01-29T20:20:01.451Z,13.75
2023-01-29T20:22:29.852Z,15.45
2023-01-29T20:24:57.159Z,13.73
2023-01-29T20:27:24.245Z,13.98
2023-01-29T20:29:52.654Z,14.55
2023-01-29T20:32:19.941Z,13.70
2023-01-29T20:34:51.875Z,14.35
2023-01-29T20:37:19.865Z,13.85
2023-01-29T20:39:47.260Z,13.00
2023-01-29T20:42:14.286Z,12.57
2023-01-29T20:44:41.294Z,12.95
2023-01-29T20:47:08.638Z,13.60
2023-01-29T20:49:35.756Z,14.30
2023-01-29T20:52:02.760Z,9.63
2023-01-29T20:54:30.123Z,17.77
2023-01-29T20:56:57.339Z,18.30
2023-01-29T20:59:24.377Z,19.77
2023-01-29T21:01:51.497Z,20.55
2023-01-29T21:04:18.516Z,17.70
2023-01-29T21:06:45.452Z,17.38
2023-01-29T21:09:12.435Z,14.95
2023-01-29T21:11:39.459Z,16.75
2023-01-29T21:14:07.174Z,13.70
2023-01-29T21:16:34.198Z,17.27
2023-01-29T21:19:01.288Z,17.83
2023-01-29T21:21:28.437Z,27.40
2023-01-29T21:23:55.403Z,28.58
2023-01-29T21:26:23.589Z,22.92
2023-01-29T21:28:50.641Z,22.27
2023-01-29T21:31:17.785Z,19.50
2023-01-29T21:33:44.807Z,19.15
2023-01-29T21:36:11.913Z,17.77
2023-01-29T21:38:39.577Z,17.45
2023-01-29T21:41:09.708Z,17.33
2023-01-29T21:43:37.229Z,16.85
2023-01-29T21:46:11.494Z,16.98
2023-01-29T21:48:39.594Z,15.18
2023-01-29T21:51:07.167Z,15.57
2023-01-29T21:53:34.699Z,15.27
2023-01-29T21:56:03.579Z,16.38
2023-01-29T21:58:30.848Z,14.23
2023-01-29T22:01:35.895Z,14.38
2023-01-29T22:03:47.265Z,13.02
2023-01-29T22:06:14.910Z,13.10
2023-01-29T22:08:41.887Z,15.50
2023-01-29T22:11:09.372Z,12.05
2023-01-29T22:13:36.461Z,12.52
2023-01-29T22:16:03.403Z,10.80
2023-01-29T22:18:30.592Z,12.15
2023-01-29T22:20:58.139Z,11.05
2023-01-29T22:23:25.168Z,11.02
2023-01-29T22:25:52.102Z,10.30
2023-01-29T22:28:19.115Z,11.65
2023-01-29T22:30:46.336Z,11.00
2023-01-29T22:33:13.545Z,10.80
2023-01-29T22:35:40.545Z,9.20
2023-01-29T22:38:07.781Z,8.45
2023-01-29T22:40:34.693Z,10.52
2023-01-29T22:43:01.736Z,8.23
2023-01-29T22:45:28.666Z,7.97
2023-01-29T22:47:55.637Z,9.32
2023-01-29T22:50:22.559Z,9.32
2023-01-29T22:52:53.620Z,9.02
2023-01-29T22:55:21.022Z,9.15
2023-01-29T22:57:50.035Z,8.43
2023-01-29T23:00:17.904Z,9.23
2023-01-29T23:02:47.032Z,8.50
2023-01-29T23:05:14.176Z,7.43
2023-01-29T23:07:41.253Z,7.13
2023-01-29T23:10:10.160Z,9.38
2023-01-29T23:12:37.113Z,7.22
2023-01-29T23:15:04.347Z,6.65
2023-01-29T23:17:31.311Z,6.75
2023-01-29T23:19:58.276Z,8.23
2023-01-29T23:22:25.270Z,9.35
2023-01-29T23:24:52.847Z,9.52
2023-01-29T23:27:20.102Z,8.30
2023-01-29T23:29:48.083Z,9.95
2023-01-29T23:32:17.880Z,9.20
2023-01-29T23:34:45.123Z,6.97
2023-01-29T23:37:12.172Z,11.00
2023-01-29T23:39:39.347Z,8.57
2023-01-29T23:42:06.303Z,9.98
2023-01-29T23:44:33.337Z,10.00
2023-01-29T23:47:00.378Z,7.72
2023-01-29T23:49:27.477Z,9.35
2023-01-29T23:51:54.542Z,7.88
2023-01-29T23:54:21.537Z,8.98
2023-01-29T23:56:48.566Z,8.52
2023-01-29T23:59:16.023Z,7.78
